Time;durP1;ratioP1;P1;durP2;ratioP2;P2;SDS_P1;SDS_P2;PMS_P1;PMS_P2;Temp;Humidity;BMP_temperature;BMP_pressure;BME280_temperature;BME280_humidity;BME280_pressure;Samples;Min_cycle;Max_cycle;Signal;HPM_P1;HPM_P2
2022/07/04 00:00:06;;;;;;;10.60;5.10;;;14.00;94.80;;;;;;5039731;28;20047;-70
2022/07/04 00:02:32;;;;;;;15.30;5.70;;;14.10;94.90;;;;;;5041697;28;20024;-70
2022/07/04 00:04:57;;;;;;;9.60;5.32;;;14.00;94.80;;;;;;5041589;28;20388;-70
2022/07/04 00:07:23;;;;;;;11.13;5.57;;;14.10;94.90;;;;;;5046901;28;20045;-70
2022/07/04 00:09:48;;;;;;;9.63;5.53;;;14.00;94.80;;;;;;5046187;28;20447;-70
2022/07/04 00:12:14;;;;;;;10.52;6.05;;;14.00;94.90;;;;;;5041632;28;20404;-70
2022/07/04 00:14:40;;;;;;;12.13;6.82;;;14.00;95.30;;;;;;5038929;28;20483;-70
2022/07/04 00:17:05;;;;;;;8.63;5.22;;;14.00;94.80;;;;;;5045997;28;20431;-70
2022/07/04 00:19:31;;;;;;;7.63;5.18;;;13.80;94.90;;;;;;5046018;28;20052;-70
2022/07/04 00:21:57;;;;;;;12.98;6.15;;;13.80;95.30;;;;;;5047173;28;20036;-70
2022/07/04 00:24:22;;;;;;;12.85;5.32;;;13.80;95.30;;;;;;5037968;28;20492;-70
2022/07/04 00:26:47;;;;;;;12.07;5.90;;;13.70;95.20;;;;;;5043957;28;20100;-70
2022/07/04 00:29:14;;;;;;;8.95;5.35;;;13.70;95.20;;;;;;5042139;28;20191;-70
2022/07/04 00:31:39;;;;;;;8.85;5.50;;;13.70;95.50;;;;;;5042739;28;20035;-70
2022/07/04 00:34:05;;;;;;;14.20;5.32;;;13.60;95.50;;;;;;5047003;28;20115;-70
2022/07/04 00:36:31;;;;;;;13.18;5.90;;;13.50;95.40;;;;;;5046723;28;20063;-69
2022/07/04 00:38:56;;;;;;;11.40;5.80;;;13.50;95.50;;;;;;5043166;28;20095;-70
2022/07/04 00:41:22;;;;;;;13.65;5.45;;;13.50;95.50;;;;;;5042247;28;22068;-69
2022/07/04 00:44:08;;;;;;;11.25;6.00;;;13.40;95.40;;;;;;5036552;28;20040;-70
2022/07/04 00:46:34;;;;;;;10.35;6.18;;;13.40;95.60;;;;;;5040938;28;20131;-70
2022/07/04 00:49:00;;;;;;;8.88;6.55;;;13.40;95.70;;;;;;5043823;28;20128;-70
2022/07/04 00:51:26;;;;;;;15.68;6.22;;;13.30;95.70;;;;;;5047145;28;20059;-70
2022/07/04 00:53:55;;;;;;;10.60;7.18;;;13.30;95.90;;;;;;5038144;28;20036;-70
2022/07/04 00:56:25;;;;;;;12.52;6.82;;;13.30;95.90;;;;;;5043918;28;20037;-70
2022/07/04 00:58:52;;;;;;;9.65;6.72;;;13.30;96.00;;;;;;5044630;28;20059;-69
2022/07/04 01:01:19;;;;;;;13.48;6.82;;;13.10;95.90;;;;;;5043817;28;20044;-70
2022/07/04 01:03:45;;;;;;;10.77;6.38;;;13.10;96.10;;;;;;5042443;28;20132;-70
2022/07/04 01:06:11;;;;;;;13.43;5.68;;;13.10;96.10;;;;;;5044630;28;20021;-70
2022/07/04 01:08:40;;;;;;;12.00;6.70;;;13.00;95.90;;;;;;5042003;28;20028;-70
2022/07/04 01:11:05;;;;;;;9.45;6.22;;;13.00;95.80;;;;;;5044688;28;20064;-70
2022/07/04 01:13:31;;;;;;;9.27;6.53;;;13.00;95.70;;;;;;5045384;28;20067;-70
2022/07/04 01:15:57;;;;;;;12.27;6.38;;;13.10;95.80;;;;;;5046346;28;20060;-69
2022/07/04 01:18:22;;;;;;;14.88;7.90;;;13.10;95.80;;;;;;5043874;28;20733;-70
2022/07/04 01:20:48;;;;;;;14.13;7.80;;;13.10;96.00;;;;;;5044775;28;20028;-70
2022/07/04 01:23:13;;;;;;;12.38;8.13;;;13.10;96.10;;;;;;5045613;28;20044;-70
2022/07/04 01:25:39;;;;;;;14.70;8.30;;;13.00;96.20;;;;;;5048234;28;20037;-70
2022/07/04 01:28:06;;;;;;;10.70;7.70;;;13.00;96.40;;;;;;5048615;28;20110;-69
2022/07/04 01:30:32;;;;;;;15.70;8.85;;;13.10;96.50;;;;;;5049440;28;20491;-70
2022/07/04 01:32:58;;;;;;;15.10;8.88;;;13.00;96.30;;;;;;5049655;28;20093;-69
2022/07/04 01:35:23;;;;;;;16.98;8.68;;;13.00;96.50;;;;;;5048497;28;20434;-69
2022/07/04 01:37:50;;;;;;;14.07;8.13;;;13.00;96.50;;;;;;5045172;28;20044;-69
2022/07/04 01:40:17;;;;;;;17.17;9.50;;;13.00;96.50;;;;;;5046459;28;20380;-69
2022/07/04 01:42:43;;;;;;;15.55;9.15;;;13.00;96.50;;;;;;5047829;28;20106;-69
2022/07/04 01:45:09;;;;;;;13.90;9.05;;;12.90;96.50;;;;;;5041466;28;20111;-70
2022/07/04 01:47:36;;;;;;;23.20;10.05;;;12.90;96.60;;;;;;5047286;28;20306;-70
2022/07/04 01:50:02;;;;;;;23.17;10.73;;;12.90;96.50;;;;;;5047721;28;20025;-69
2022/07/04 01:52:27;;;;;;;18.10;10.63;;;12.80;96.60;;;;;;5044143;28;20044;-70
2022/07/04 01:54:53;;;;;;;17.80;10.48;;;12.80;96.50;;;;;;5046356;28;20109;-69
2022/07/04 01:57:18;;;;;;;18.83;10.50;;;12.80;96.70;;;;;;5046506;28;20422;-70
2022/07/04 02:02:28;;;;;;;14.73;9.68;;;12.70;96.80;;;;;;5050291;28;20039;-70
2022/07/04 02:04:54;;;;;;;14.27;9.50;;;12.70;96.90;;;;;;5043471;28;20629;-69
2022/07/04 02:07:19;;;;;;;14.40;9.57;;;12.70;96.90;;;;;;5048742;28;20044;-69
2022/07/04 02:09:45;;;;;;;15.68;8.57;;;12.70;96.80;;;;;;5045226;28;20041;-69
2022/07/04 02:14:55;;;;;;;20.65;10.25;;;12.80;97.00;;;;;;5044752;28;20056;-70
2022/07/04 02:17:21;;;;;;;18.88;11.50;;;12.70;97.10;;;;;;5045017;28;20029;-70
2022/07/04 02:19:47;;;;;;;19.48;11.68;;;12.80;97.30;;;;;;5049700;28;20067;-69
2022/07/04 02:22:13;;;;;;;18.65;11.60;;;12.80;97.40;;;;;;5046457;28;20041;-70
2022/07/04 02:24:39;;;;;;;21.00;12.63;;;12.90;97.30;;;;;;5047673;28;20037;-70
2022/07/04 02:27:05;;;;;;;24.30;13.00;;;12.90;97.40;;;;;;5046151;28;20131;-69
2022/07/04 02:29:30;;;;;;;23.02;12.45;;;13.00;97.40;;;;;;5045067;28;20045;-69
2022/07/04 02:31:56;;;;;;;22.27;13.52;;;12.90;97.20;;;;;;5045111;28;20103;-70
2022/07/04 02:34:22;;;;;;;21.17;12.98;;;12.90;97.20;;;;;;5049139;28;20060;-69
2022/07/04 02:36:47;;;;;;;21.13;13.15;;;13.00;97.30;;;;;;5049620;28;20037;-69
2022/07/04 02:39:13;;;;;;;18.08;11.70;;;12.90;97.10;;;;;;5042648;28;21890;-70
2022/07/04 02:41:38;;;;;;;24.80;13.00;;;12.80;97.10;;;;;;5039552;28;20501;-70
2022/07/04 02:44:04;;;;;;;26.77;12.73;;;12.80;97.20;;;;;;5039519;28;20059;-69
2022/07/04 02:46:32;;;;;;;21.73;12.77;;;12.70;97.30;;;;;;5044129;28;20340;-69
2022/07/04 02:48:58;;;;;;;26.15;14.15;;;12.80;97.50;;;;;;5045093;28;20032;-70
2022/07/04 02:51:23;;;;;;;21.20;13.45;;;12.90;97.50;;;;;;5040251;28;20037;-70
2022/07/04 02:53:49;;;;;;;23.05;14.60;;;12.80;97.30;;;;;;5043704;28;20400;-70
2022/07/04 02:56:15;;;;;;;24.50;14.90;;;12.90;97.40;;;;;;5048015;28;20117;-69
2022/07/04 02:58:40;;;;;;;27.77;15.65;;;12.90;97.30;;;;;;5038746;28;20122;-69
2022/07/04 03:01:06;;;;;;;26.83;15.60;;;12.90;97.40;;;;;;5040296;28;20829;-70
2022/07/04 03:03:31;;;;;;;30.33;16.25;;;12.90;97.50;;;;;;5045507;28;20029;-69
2022/07/04 03:05:57;;;;;;;24.55;15.68;;;12.90;97.40;;;;;;5044442;28;20463;-69
2022/07/04 03:08:22;;;;;;;26.17;16.20;;;13.00;97.50;;;;;;5041475;28;20044;-70
2022/07/04 03:10:51;;;;;;;24.88;14.80;;;13.00;97.40;;;;;;5045472;28;20033;-69
2022/07/04 03:13:18;;;;;;;23.30;15.15;;;12.90;97.30;;;;;;5037651;28;20400;-70
2022/07/04 03:15:43;;;;;;;25.85;15.65;;;12.80;97.30;;;;;;5036388;28;20053;-69
2022/07/04 03:18:09;;;;;;;27.90;15.40;;;12.80;97.20;;;;;;5040657;28;20135;-70
2022/07/04 03:20:34;;;;;;;27.10;14.82;;;12.70;97.30;;;;;;5047129;28;20356;-69
2022/07/04 03:23:00;;;;;;;24.67;15.27;;;12.70;97.40;;;;;;5046932;28;20061;-70
2022/07/04 03:25:26;;;;;;;24.45;14.95;;;12.70;97.50;;;;;;5046050;28;20029;-70
2022/07/04 03:27:51;;;;;;;28.65;15.40;;;12.70;97.50;;;;;;5043395;28;20029;-69
2022/07/04 03:30:17;;;;;;;24.08;14.20;;;12.60;97.50;;;;;;5042665;28;20029;-69
2022/07/04 03:32:42;;;;;;;24.58;13.27;;;12.60;97.40;;;;;;5047691;28;20036;-70
2022/07/04 03:35:08;;;;;;;21.73;13.10;;;12.60;97.40;;;;;;5042354;28;20040;-70
2022/07/04 03:37:34;;;;;;;17.95;13.10;;;12.60;97.40;;;;;;5046994;28;20117;-69
2022/07/04 03:39:59;;;;;;;22.05;12.57;;;12.60;97.30;;;;;;5043004;28;20107;-69
2022/07/04 03:42:25;;;;;;;22.27;13.20;;;12.60;97.20;;;;;;5041147;28;20569;-69
2022/07/04 03:44:50;;;;;;;20.27;13.15;;;12.60;97.20;;;;;;5038592;28;20646;-70
2022/07/04 03:47:16;;;;;;;18.30;12.38;;;12.50;97.20;;;;;;5045344;28;20029;-69
2022/07/04 03:49:41;;;;;;;20.70;11.57;;;12.50;97.30;;;;;;5041179;28;20036;-69
2022/07/04 03:52:07;;;;;;;18.58;10.98;;;12.60;97.30;;;;;;5048812;28;20367;-69
2022/07/04 03:54:32;;;;;;;17.20;11.15;;;12.50;97.20;;;;;;5042880;28;20040;-69
2022/07/04 03:56:58;;;;;;;17.02;11.13;;;12.40;97.00;;;;;;5039977;28;20032;-70
2022/07/04 03:59:23;;;;;;;16.60;10.00;;;12.40;97.00;;;;;;5041684;28;20028;-69
2022/07/04 04:01:49;;;;;;;15.07;10.18;;;12.40;97.10;;;;;;5043781;28;20129;-69
2022/07/04 04:06:58;;;;;;;17.27;11.75;;;12.40;97.10;;;;;;5043420;28;20028;-69
2022/07/04 04:09:24;;;;;;;19.98;12.60;;;12.40;97.10;;;;;;5045513;28;20036;-70
2022/07/04 04:11:50;;;;;;;21.50;12.77;;;12.50;97.10;;;;;;5042177;28;20032;-70
2022/07/04 04:14:16;;;;;;;23.42;12.77;;;12.50;97.20;;;;;;5043456;28;20167;-69
2022/07/04 04:16:42;;;;;;;19.58;12.27;;;12.50;97.20;;;;;;5040722;28;20115;-69
2022/07/04 04:19:08;;;;;;;17.52;12.43;;;12.50;97.30;;;;;;5044301;28;20063;-69
2022/07/04 04:21:34;;;;;;;18.45;12.63;;;12.60;97.20;;;;;;5043988;28;20033;-69
2022/07/04 04:24:00;;;;;;;19.33;13.65;;;12.60;97.30;;;;;;5045275;28;20476;-69
2022/07/04 04:26:25;;;;;;;19.48;13.25;;;12.60;97.30;;;;;;5042250;28;20149;-68
2022/07/04 04:28:51;;;;;;;19.45;12.75;;;12.60;97.30;;;;;;5039413;28;20432;-68
2022/07/04 04:31:17;;;;;;;18.38;13.35;;;12.60;97.40;;;;;;5047622;28;20139;-67
2022/07/04 04:33:42;;;;;;;20.20;14.13;;;12.70;97.40;;;;;;5043997;28;20128;-67
2022/07/04 04:36:08;;;;;;;20.05;13.43;;;12.70;97.50;;;;;;5049588;28;20029;-68
2022/07/04 04:38:33;;;;;;;20.90;13.60;;;12.70;97.40;;;;;;5047037;28;20032;-68
2022/07/04 04:40:59;;;;;;;16.98;12.77;;;12.70;97.40;;;;;;5041086;28;20030;-68
2022/07/04 04:43:24;;;;;;;20.45;13.38;;;12.80;97.40;;;;;;5041492;28;20067;-68
2022/07/04 04:45:50;;;;;;;21.05;13.60;;;12.90;97.40;;;;;;5037600;28;20417;-67
2022/07/04 04:48:15;;;;;;;20.98;12.95;;;12.90;97.30;;;;;;5043661;28;20040;-67
2022/07/04 04:50:41;;;;;;;22.42;13.45;;;12.90;97.20;;;;;;5040741;28;20087;-67
2022/07/04 04:53:06;;;;;;;18.70;12.73;;;13.00;97.10;;;;;;5043879;28;20490;-67
2022/07/04 04:55:32;;;;;;;19.77;13.02;;;13.00;97.10;;;;;;5031364;28;20041;-67
2022/07/04 04:57:57;;;;;;;16.98;12.70;;;13.00;97.20;;;;;;5040293;28;20124;-67
2022/07/04 05:00:23;;;;;;;20.85;12.13;;;13.00;96.90;;;;;;5042025;28;20516;-67
2022/07/04 05:02:49;;;;;;;16.25;11.30;;;13.00;96.90;;;;;;5052896;28;20045;-67
2022/07/04 05:05:14;;;;;;;15.88;11.23;;;13.10;96.90;;;;;;5054295;28;20036;-67
2022/07/04 05:07:40;;;;;;;18.10;12.00;;;13.20;96.90;;;;;;5049820;28;20037;-67
2022/07/04 05:10:06;;;;;;;17.67;11.05;;;13.30;96.80;;;;;;5054273;28;20039;-67
2022/07/04 05:12:32;;;;;;;14.00;10.68;;;13.30;96.70;;;;;;5045909;28;20036;-67
2022/07/04 05:14:57;;;;;;;14.75;11.10;;;13.40;96.60;;;;;;5050145;28;20049;-67
2022/07/04 05:17:23;;;;;;;17.60;10.00;;;13.40;96.50;;;;;;5052127;28;20146;-67
2022/07/04 05:19:49;;;;;;;16.23;10.63;;;13.50;96.40;;;;;;5049070;28;20077;-67
2022/07/04 05:22:14;;;;;;;17.02;10.05;;;13.60;96.30;;;;;;5051265;28;20043;-67
2022/07/04 05:24:40;;;;;;;16.30;9.95;;;13.70;96.30;;;;;;5049744;28;20032;-67
2022/07/04 05:27:06;;;;;;;20.52;9.82;;;13.80;96.20;;;;;;5050811;28;20045;-67
2022/07/04 05:29:32;;;;;;;16.08;9.25;;;13.90;96.00;;;;;;5047321;28;20107;-67
2022/07/04 05:31:58;;;;;;;12.85;8.65;;;14.00;95.70;;;;;;5050872;28;20157;-67
2022/07/04 05:34:24;;;;;;;10.23;7.43;;;14.10;95.50;;;;;;5055040;28;20024;-67
2022/07/04 05:36:49;;;;;;;12.30;8.18;;;14.20;95.20;;;;;;5049491;28;20056;-67
2022/07/04 05:39:15;;;;;;;10.40;7.05;;;14.20;94.90;;;;;;5045910;28;20025;-67
2022/07/04 05:41:40;;;;;;;12.75;6.18;;;14.40;94.60;;;;;;5047305;28;20115;-67
2022/07/04 05:44:06;;;;;;;9.05;5.50;;;14.50;94.10;;;;;;5054407;28;20033;-67
2022/07/04 05:46:32;;;;;;;9.63;4.65;;;14.50;93.70;;;;;;5048403;28;20048;-67
2022/07/04 05:48:57;;;;;;;9.70;5.07;;;14.60;93.30;;;;;;5054021;28;20039;-67
2022/07/04 05:51:23;;;;;;;7.68;5.18;;;14.70;92.20;;;;;;5046234;28;20056;-67
2022/07/04 05:53:49;;;;;;;12.02;4.90;;;14.80;92.10;;;;;;5046045;28;20029;-67
2022/07/04 05:56:15;;;;;;;10.38;4.78;;;15.00;92.10;;;;;;5050136;28;20037;-67
2022/07/04 05:58:40;;;;;;;8.70;4.10;;;15.00;90.90;;;;;;5048420;28;20036;-67
2022/07/04 06:01:06;;;;;;;8.57;3.95;;;15.00;90.10;;;;;;5051482;28;20154;-67
2022/07/04 06:03:32;;;;;;;8.15;3.78;;;15.10;89.90;;;;;;5050777;28;20033;-67
2022/07/04 06:05:57;;;;;;;8.73;3.53;;;15.10;89.50;;;;;;5048363;28;20147;-67
2022/07/04 06:08:23;;;;;;;6.88;4.07;;;15.40;89.40;;;;;;5038403;28;20133;-67
2022/07/04 06:10:49;;;;;;;5.50;3.10;;;15.40;88.60;;;;;;5048250;28;20115;-67
2022/07/04 06:13:14;;;;;;;6.82;3.17;;;15.50;88.50;;;;;;5047257;28;20076;-67
2022/07/04 06:15:40;;;;;;;6.88;3.30;;;15.70;88.80;;;;;;5045369;28;20057;-67
2022/07/04 06:18:06;;;;;;;6.85;3.30;;;15.80;88.30;;;;;;5049790;28;20118;-67
2022/07/04 06:20:31;;;;;;;9.55;2.85;;;16.00;88.00;;;;;;5047363;28;20106;-67
2022/07/04 06:22:57;;;;;;;7.68;3.38;;;16.00;87.80;;;;;;5045588;28;20486;-67
2022/07/04 06:25:23;;;;;;;6.10;3.20;;;16.10;87.40;;;;;;5046698;28;20068;-67
2022/07/04 06:27:49;;;;;;;8.60;2.63;;;16.20;86.50;;;;;;5039567;28;20078;-67
2022/07/04 06:30:16;;;;;;;5.72;2.70;;;16.30;85.30;;;;;;5044748;28;20401;-67
2022/07/04 06:32:52;;;;;;;7.18;2.47;;;16.40;84.70;;;;;;5050616;28;20040;-67
2022/07/04 06:38:08;;;;;;;6.00;2.47;;;16.60;84.50;;;;;;5045133;28;20676;-67
2022/07/04 06:40:34;;;;;;;6.20;2.20;;;16.80;82.90;;;;;;5043641;28;20515;-67
2022/07/04 06:43:00;;;;;;;4.95;2.30;;;16.80;82.50;;;;;;5043035;28;20040;-67
2022/07/04 06:45:25;;;;;;;7.57;2.33;;;16.80;82.20;;;;;;5048493;28;20372;-67
2022/07/04 06:47:51;;;;;;;4.95;2.05;;;16.90;81.80;;;;;;5045334;28;20033;-67
2022/07/04 06:50:18;;;;;;;4.13;2.10;;;16.90;82.00;;;;;;5041568;28;20552;-67
2022/07/04 06:52:44;;;;;;;3.80;1.75;;;17.00;81.50;;;;;;5042238;28;20095;-67
2022/07/04 06:55:09;;;;;;;6.18;2.08;;;17.20;81.60;;;;;;5043496;28;20092;-67
2022/07/04 06:57:35;;;;;;;6.60;2.15;;;17.40;80.60;;;;;;5043766;28;20079;-67
2022/07/04 07:00:02;;;;;;;5.45;2.17;;;17.30;81.10;;;;;;5041957;28;20025;-67
2022/07/04 07:02:28;;;;;;;5.50;2.22;;;17.10;80.60;;;;;;5042720;28;20142;-67
2022/07/04 07:04:57;;;;;;;4.60;2.20;;;17.00;80.80;;;;;;5049601;28;20123;-67
2022/07/04 07:07:24;;;;;;;5.78;2.08;;;17.10;80.90;;;;;;5048391;28;20036;-67
2022/07/04 07:09:50;;;;;;;5.57;1.95;;;17.30;80.00;;;;;;5042361;28;20041;-67
2022/07/04 07:12:16;;;;;;;3.55;1.63;;;17.30;79.50;;;;;;5044210;28;20371;-67
2022/07/04 07:14:41;;;;;;;2.58;1.42;;;17.30;78.10;;;;;;5043232;28;20082;-67
2022/07/04 07:17:07;;;;;;;5.57;1.60;;;17.30;77.70;;;;;;5046632;28;20528;-67
2022/07/04 07:19:33;;;;;;;3.33;1.20;;;17.60;76.60;;;;;;5046257;28;20064;-67
2022/07/04 07:21:58;;;;;;;2.25;1.38;;;17.70;75.10;;;;;;5042315;28;20036;-67
2022/07/04 07:24:25;;;;;;;4.30;1.08;;;17.90;74.40;;;;;;5044547;28;20033;-67
2022/07/04 07:26:51;;;;;;;4.38;1.27;;;17.90;74.40;;;;;;5046547;28;20036;-67
2022/07/04 07:29:17;;;;;;;5.43;1.15;;;18.00;73.60;;;;;;5044107;28;20131;-67
2022/07/04 07:31:43;;;;;;;4.38;1.30;;;18.20;73.30;;;;;;5043561;28;20337;-67
2022/07/04 07:34:08;;;;;;;3.53;1.00;;;18.30;71.20;;;;;;5045618;28;20464;-67
2022/07/04 07:36:34;;;;;;;2.70;1.05;;;18.50;71.30;;;;;;5041839;28;20058;-66
2022/07/04 07:39:00;;;;;;;2.63;0.90;;;18.50;69.30;;;;;;5041620;28;20586;-66
2022/07/04 07:41:26;;;;;;;2.83;0.90;;;18.50;69.00;;;;;;5039851;28;20420;-67
2022/07/04 07:43:51;;;;;;;2.53;0.90;;;18.50;68.40;;;;;;5032261;28;20028;-67
2022/07/04 07:46:17;;;;;;;5.13;0.90;;;18.70;69.60;;;;;;5043855;28;20033;-67
2022/07/04 07:48:42;;;;;;;3.95;0.70;;;18.70;67.60;;;;;;5032469;28;20072;-67
2022/07/04 07:51:10;;;;;;;2.42;0.73;;;19.00;67.20;;;;;;5045349;28;20025;-67
2022/07/04 07:53:35;;;;;;;7.57;0.85;;;19.10;66.80;;;;;;5041859;28;20105;-66
2022/07/04 07:56:01;;;;;;;2.85;0.68;;;18.90;68.30;;;;;;5045628;28;20120;-67
2022/07/04 07:58:27;;;;;;;1.95;0.60;;;19.30;67.90;;;;;;5037864;28;20033;-67
2022/07/04 08:00:52;;;;;;;5.38;0.70;;;19.60;66.70;;;;;;5047146;28;20029;-67
2022/07/04 08:06:02;;;;;;;2.65;0.77;;;19.40;63.70;;;;;;5036590;28;20047;-66
2022/07/04 08:08:28;;;;;;;2.28;0.80;;;18.90;65.10;;;;;;5037803;28;20028;-67
2022/07/04 08:10:53;;;;;;;3.30;0.75;;;19.40;64.70;;;;;;5045433;28;20119;-67
2022/07/04 08:13:19;;;;;;;1.92;0.68;;;19.80;64.60;;;;;;5036319;28;20474;-67
2022/07/04 08:15:45;;;;;;;5.15;0.90;;;19.40;63.80;;;;;;5039004;28;20428;-67
2022/07/04 08:18:10;;;;;;;4.97;0.75;;;19.10;65.20;;;;;;5041853;28;20063;-67
2022/07/04 08:20:36;;;;;;;4.35;0.80;;;19.50;64.00;;;;;;5046458;28;20446;-67
2022/07/04 08:23:02;;;;;;;3.65;0.70;;;19.70;62.40;;;;;;5041751;28;20016;-67
2022/07/04 08:25:27;;;;;;;5.57;0.70;;;19.60;63.40;;;;;;5045383;28;20032;-67
2022/07/04 08:27:53;;;;;;;2.53;1.00;;;20.10;63.30;;;;;;5046360;28;20089;-67
2022/07/04 08:30:18;;;;;;;3.13;0.70;;;20.20;61.10;;;;;;5041208;28;20584;-67
2022/07/04 08:32:44;;;;;;;3.58;0.90;;;20.60;61.80;;;;;;5042638;28;20171;-67
2022/07/04 08:35:09;;;;;;;4.72;1.15;;;20.10;60.30;;;;;;5042294;28;20045;-67
2022/07/04 08:37:35;;;;;;;3.35;0.90;;;20.10;61.00;;;;;;5049715;28;20043;-67
2022/07/04 08:40:06;;;;;;;5.10;1.30;;;20.00;62.40;;;;;;5046162;28;20037;-67
2022/07/04 08:42:35;;;;;;;;;;;19.90;63.30;;;;;;5050008;28;20029;-67
2022/07/04 08:45:02;;;;;;;2.83;0.90;;;19.80;60.70;;;;;;5043238;28;19909;-67
2022/07/04 08:47:33;;;;;;;5.93;1.00;;;20.50;61.20;;;;;;5048808;28;20041;-67
2022/07/04 08:50:16;;;;;;;4.32;1.13;;;20.80;59.50;;;;;;5044998;28;20025;-67
2022/07/04 08:52:47;;;;;;;3.10;1.15;;;20.30;60.30;;;;;;5043310;28;20074;-67
2022/07/04 09:00:43;;;;;;;2.28;0.82;;;19.90;61.30;;;;;;5045871;28;20082;-67
2022/07/04 09:03:09;;;;;;;3.88;0.90;;;20.60;61.50;;;;;;5043179;28;20045;-67
2022/07/04 09:05:35;;;;;;;4.25;0.95;;;20.70;59.10;;;;;;5041253;28;20036;-67
2022/07/04 09:08:03;;;;;;;1.45;0.80;;;20.40;59.20;;;;;;5047576;28;20486;-67
2022/07/04 09:10:29;;;;;;;2.58;0.80;;;20.60;58.90;;;;;;5042091;28;20079;-67
2022/07/04 09:12:55;;;;;;;3.42;1.00;;;20.70;59.80;;;;;;5040595;28;20118;-67
2022/07/04 09:15:20;;;;;;;1.90;0.90;;;20.40;59.60;;;;;;5037298;28;20037;-67
2022/07/04 09:17:47;;;;;;;3.63;1.05;;;20.10;60.20;;;;;;5049584;28;20041;-67
2022/07/04 09:20:21;;;;;;;2.85;0.82;;;20.60;59.90;;;;;;5045592;28;20045;-67
2022/07/04 09:22:47;;;;;;;2.33;0.98;;;20.90;58.20;;;;;;5046874;28;20426;-67
2022/07/04 09:25:17;;;;;;;1.92;0.75;;;20.70;59.30;;;;;;5039716;28;20181;-67
2022/07/04 09:27:51;;;;;;;1.80;0.68;;;21.10;60.30;;;;;;5042674;28;20035;-67
2022/07/04 09:30:19;;;;;;;3.38;0.70;;;21.40;58.70;;;;;;5045943;28;20082;-67
2022/07/04 09:32:46;;;;;;;2.65;0.70;;;21.20;57.10;;;;;;5045676;28;20192;-67
2022/07/04 09:35:21;;;;;;;2.80;0.60;;;21.50;57.00;;;;;;5042625;28;20040;-67
2022/07/04 09:37:48;;;;;;;2.63;0.60;;;21.50;55.00;;;;;;5043257;28;20067;-67
2022/07/04 09:40:23;;;;;;;3.53;0.80;;;21.40;55.20;;;;;;5044502;28;20044;-67
2022/07/04 09:42:48;;;;;;;3.78;0.88;;;21.60;54.50;;;;;;5041026;28;20457;-67
2022/07/04 09:45:14;;;;;;;1.83;0.50;;;21.00;56.60;;;;;;5035131;28;20182;-67
2022/07/04 09:47:41;;;;;;;2.50;0.60;;;21.40;55.70;;;;;;5046202;28;20032;-67
2022/07/04 09:50:15;;;;;;;2.45;0.57;;;21.50;55.10;;;;;;5047165;28;20112;-67
2022/07/04 09:53:00;;;;;;;2.85;0.50;;;21.50;55.20;;;;;;5048163;28;20060;-67
2022/07/04 09:55:27;;;;;;;2.17;0.70;;;21.40;56.90;;;;;;5048135;28;20045;-67
2022/07/04 09:57:53;;;;;;;1.00;0.45;;;21.10;57.30;;;;;;5033008;28;20115;-67
2022/07/04 10:00:31;;;;;;;2.85;0.60;;;20.60;55.90;;;;;;5038887;28;20103;-67
2022/07/04 10:03:14;;;;;;;1.05;0.47;;;20.90;56.50;;;;;;5040885;28;20120;-67
2022/07/04 10:05:40;;;;;;;2.47;0.45;;;21.00;56.00;;;;;;5045189;28;20037;-67
2022/07/04 10:08:06;;;;;;;2.53;0.73;;;20.80;56.30;;;;;;5050236;28;20029;-67
2022/07/04 10:10:37;;;;;;;3.40;0.63;;;21.40;56.10;;;;;;5047397;28;20032;-67
2022/07/04 10:13:10;;;;;;;1.63;0.43;;;21.40;56.00;;;;;;5050047;28;20102;-67
2022/07/04 10:15:38;;;;;;;0.82;0.40;;;21.10;56.60;;;;;;5035687;28;20088;-67
2022/07/04 10:18:05;;;;;;;1.45;0.77;;;20.90;57.30;;;;;;5045747;28;20100;-67
2022/07/04 10:20:30;;;;;;;1.88;0.50;;;21.50;55.70;;;;;;5045256;28;20037;-67
2022/07/04 10:22:57;;;;;;;2.88;0.50;;;21.80;55.80;;;;;;5050726;28;20041;-67
2022/07/04 10:25:23;;;;;;;2.05;0.45;;;22.60;52.90;;;;;;5045228;28;20168;-68
2022/07/04 10:27:50;;;;;;;1.25;0.50;;;22.90;52.20;;;;;;5048570;28;20124;-68
2022/07/04 10:30:29;;;;;;;3.90;0.65;;;23.10;52.30;;;;;;5042385;28;20021;-67
2022/07/04 10:32:58;;;;;;;3.85;0.70;;;23.30;51.40;;;;;;5046140;28;20044;-68
2022/07/04 10:35:49;;;;;;;0.60;0.50;;;23.50;51.30;;;;;;5039804;28;20041;-68
2022/07/04 10:38:18;;;;;;;2.97;0.50;;;23.50;50.50;;;;;;5043819;28;20029;-68
2022/07/04 10:40:59;;;;;;;1.80;0.35;;;23.20;51.00;;;;;;5042706;28;20083;-67
2022/07/04 10:43:30;;;;;;;1.88;0.50;;;23.20;50.30;;;;;;5044998;28;20047;-67
2022/07/04 10:45:55;;;;;;;;;;;22.60;52.80;;;;;;5041752;28;20151;-68
2022/07/04 10:48:22;;;;;;;1.80;0.50;;;22.70;50.50;;;;;;5041421;28;20408;-68
2022/07/04 10:51:05;;;;;;;2.25;0.60;;;23.00;51.40;;;;;;5043850;28;20107;-68
2022/07/04 10:53:33;;;;;;;0.65;0.30;;;23.50;50.90;;;;;;5044859;28;20033;-68
2022/07/04 10:56:17;;;;;;;0.88;0.60;;;23.70;50.80;;;;;;5045125;28;20032;-68
2022/07/04 10:58:43;;;;;;;3.58;0.68;;;24.00;50.00;;;;;;5045761;28;20097;-68
2022/07/04 11:01:12;;;;;;;0.90;0.50;;;24.70;49.30;;;;;;5047252;28;20460;-68
2022/07/04 11:03:50;;;;;;;3.13;0.75;;;25.00;48.80;;;;;;5043750;28;20143;-68
2022/07/04 11:06:36;;;;;;;2.50;0.70;;;24.20;47.70;;;;;;5042850;28;20033;-68
2022/07/04 11:09:19;;;;;;;1.75;0.50;;;24.10;49.10;;;;;;5042450;28;20028;-68
2022/07/04 11:11:59;;;;;;;2.15;0.40;;;24.40;48.50;;;;;;5041932;28;20066;-68
2022/07/04 11:14:40;;;;;;;1.52;0.65;;;24.70;47.50;;;;;;5039734;28;20039;-68
2022/07/04 11:17:08;;;;;;;2.78;0.55;;;23.50;50.30;;;;;;5038006;28;20578;-68
2022/07/04 11:19:33;;;;;;;2.05;0.60;;;22.90;49.20;;;;;;5043842;28;20083;-68
2022/07/04 11:21:59;;;;;;;2.25;0.77;;;23.00;50.40;;;;;;5046746;28;20057;-70
2022/07/04 11:24:26;;;;;;;1.75;0.70;;;23.60;49.40;;;;;;5042223;28;20097;-67
2022/07/04 11:26:52;;;;;;;2.42;0.70;;;23.50;49.30;;;;;;5044910;28;20532;-68
2022/07/04 11:29:17;;;;;;;1.65;0.57;;;23.00;50.10;;;;;;5041896;28;20150;-68
2022/07/04 11:31:46;;;;;;;3.78;0.80;;;22.50;50.60;;;;;;5046387;28;20115;-68
2022/07/04 11:34:12;;;;;;;3.72;0.77;;;22.40;52.20;;;;;;5045880;28;20077;-67
2022/07/04 11:36:39;;;;;;;4.22;0.77;;;21.90;52.90;;;;;;5048493;28;20174;-67
2022/07/04 11:39:07;;;;;;;2.03;0.70;;;21.80;52.30;;;;;;5042921;28;20431;-67
2022/07/04 11:47:31;;;;;;;2.60;0.98;;;22.60;51.60;;;;;;5043257;28;20098;-67
2022/07/04 11:49:58;;;;;;;3.25;0.57;;;22.80;50.90;;;;;;5038468;28;20094;-67
2022/07/04 11:52:53;;;;;;;2.22;0.85;;;22.70;51.40;;;;;;5047189;28;20036;-67
2022/07/04 11:55:19;;;;;;;2.53;0.60;;;22.70;51.80;;;;;;5046230;28;20469;-67
2022/07/04 11:57:50;;;;;;;1.08;0.60;;;22.70;51.40;;;;;;5048600;28;20063;-67
2022/07/04 12:00:24;;;;;;;4.10;0.70;;;22.50;50.10;;;;;;5043514;28;20025;-67
2022/07/04 12:02:50;;;;;;;1.67;0.70;;;22.60;50.40;;;;;;5039881;28;20041;-67
2022/07/04 12:05:17;;;;;;;5.45;0.60;;;22.90;51.10;;;;;;5042369;28;20059;-67
2022/07/04 12:07:45;;;;;;;2.38;0.70;;;23.50;49.80;;;;;;5044436;28;20025;-67
2022/07/04 12:10:22;;;;;;;2.45;0.63;;;24.30;49.40;;;;;;5046855;28;20052;-68
2022/07/04 12:12:52;;;;;;;1.65;0.55;;;24.70;46.40;;;;;;5049421;28;20037;-68
2022/07/04 12:15:18;;;;;;;3.00;0.70;;;25.10;47.60;;;;;;5033065;28;20038;-68
2022/07/04 12:17:43;;;;;;;2.92;0.50;;;25.90;45.10;;;;;;5043461;28;20411;-68
2022/07/04 12:20:13;;;;;;;1.45;0.60;;;25.70;44.80;;;;;;5044569;28;20128;-68
2022/07/04 12:22:49;;;;;;;1.80;0.53;;;25.60;44.10;;;;;;5047978;28;20033;-68
2022/07/04 12:25:25;;;;;;;2.00;0.43;;;25.80;45.00;;;;;;5037669;28;20030;-68
2022/07/04 12:27:55;;;;;;;4.35;0.60;;;25.90;43.10;;;;;;5041345;28;20750;-68
2022/07/04 12:30:21;;;;;;;2.65;0.70;;;25.40;43.90;;;;;;5037970;28;20650;-68
2022/07/04 12:33:08;;;;;;;3.15;0.65;;;26.00;42.10;;;;;;5043517;28;20122;-68
2022/07/04 12:35:47;;;;;;;2.33;0.68;;;26.30;41.60;;;;;;5045460;28;20396;-68
2022/07/04 12:38:17;;;;;;;1.88;0.60;;;27.20;42.00;;;;;;5043008;28;20041;-67
2022/07/04 12:41:03;;;;;;;1.45;0.45;;;26.80;41.60;;;;;;5044804;28;20102;-68
2022/07/04 12:43:43;;;;;;;3.97;0.50;;;26.80;40.60;;;;;;5032030;28;20033;-68
2022/07/04 12:46:08;;;;;;;1.23;0.52;;;26.00;41.20;;;;;;5046426;28;20037;-67
2022/07/04 12:48:34;;;;;;;1.85;0.75;;;26.00;42.50;;;;;;5042480;28;20036;-68
2022/07/04 12:51:15;;;;;;;1.58;0.50;;;26.30;41.60;;;;;;5039159;28;20443;-67
2022/07/04 12:53:41;;;;;;;;;;;26.40;41.80;;;;;;5043521;28;20044;-68
2022/07/04 12:56:08;;;;;;;2.63;0.60;;;27.00;39.60;;;;;;5043568;28;20197;-67
2022/07/04 12:58:34;;;;;;;1.25;0.35;;;27.10;41.40;;;;;;5040305;28;21595;-67
2022/07/04 13:00:59;;;;;;;3.33;0.68;;;26.10;42.40;;;;;;5039092;28;21388;-67
2022/07/04 13:03:25;;;;;;;1.75;0.50;;;25.90;41.20;;;;;;5044969;28;20037;-67
2022/07/04 13:05:51;;;;;;;1.92;0.40;;;25.70;40.80;;;;;;5045855;28;20368;-67